MV Fenella — A8YX7 — position and weather

sailwx.info

Track history (hours):
 
Tides and Currents Weather Stations Pressure Air Temp Water Temp Dewpoint Dewpoint Depression Visibility Wind Speed Wind Dir Waves Ship Positions

MV Fenella

Last reported at 2015-Nov-17 03:22 UTC. Time now 2016-Feb-10 10:49 UTC.
Position N 48°20' W 124°05'.
Warning: this ship's position is months out of date.

Length 159 m; draft 7 m.

Type: Cargo ship. MMSI: 636092234.

Date/timePositionNaut miles runAvg speedWind from/ knotsBaromVisibWave heightAir tempDewpointWater temp
2015-Nov-17 03:22N 48°20' W 124°05'1113.1
2015-Nov-17 02:33N 48°17' W 123°49'1212.2
2015-Nov-17 01:33N 48°16' W 123°31'1010.5
2015-Nov-17 00:33N 48°24' W 123°21'8 8.3
2015-Nov-16 23:33N 48°30' W 123°13'1110.6
2015-Nov-16 22:33N 48°40' W 123°15'1211.7
2015-Nov-16 21:33N 48°48' W 123°01'1111.1
2015-Nov-16 20:33N 48°56' W 123°12'1211.6
2015-Nov-16 19:33N 49°04' W 123°25'1111.3
2015-Nov-16 18:33N 49°11' W 123°39'10 9.9
2015-Nov-16 17:33N 49°12' W 123°54'0 0.1
2015-Nov-16 16:30N 49°12' W 123°54'0 0.1
2015-Nov-16 15:33N 49°12' W 123°54'0 0.0
2015-Nov-16 14:33N 49°12' W 123°54'0 0.0
2015-Nov-16 13:33N 49°12' W 123°54'0 0.0
2015-Nov-16 12:33N 49°12' W 123°54'0 0.0
2015-Nov-16 11:27N 49°12' W 123°54'0 0.0
2015-Nov-16 10:30N 49°12' W 123°54'0 0.1
2015-Nov-16 09:18N 49°12' W 123°54'0 0.0
2015-Nov-16 07:33N 49°11' W 123°54'0 0.0
2015-Nov-16 06:18N 49°11' W 123°54'0 0.0
2015-Nov-16 05:24N 49°11' W 123°54'0 0.0
2015-Nov-16 04:30N 49°11' W 123°54'0 0.0
2015-Nov-16 03:27N 49°11' W 123°54'0 0.0
2015-Nov-16 02:27N 49°11' W 123°54'0 0.0
2015-Nov-16 01:33N 49°11' W 123°54'0 0.0
2015-Nov-16 00:33N 49°11' W 123°54'0 0.0
2015-Nov-15 23:15N 49°11' W 123°54'0 0.1
2015-Nov-15 22:30N 49°11' W 123°54'0 0.4
2015-Nov-15 21:33N 49°11' W 123°54'2 0.2
2015-Nov-15 08:27N 49°09' W 123°53'0 0.0
2015-Nov-15 07:33N 49°09' W 123°53'0 0.0
2015-Nov-15 03:20N 49°09' W 123°53'0 0.0
2015-Nov-15 02:24N 49°09' W 123°53'0 0.0
2015-Nov-14 23:27N 49°09' W 123°53'0 0.0
2015-Nov-14 22:21N 49°09' W 123°53'0 0.0
2015-Nov-14 21:30N 49°09' W 123°53'0 0.0
2015-Nov-14 20:12N 49°09' W 123°53'0 0.0
2015-Nov-14 19:24N 49°09' W 123°53'0 0.0
2015-Nov-14 18:24N 49°09' W 123°53'0 0.0
2015-Nov-14 17:18N 49°09' W 123°53'0 0.0
2015-Nov-14 14:18N 49°09' W 123°53'0 0.0
2015-Nov-14 13:32N 49°09' W 123°53'0 0.0
2015-Nov-14 12:27N 49°09' W 123°53'0 0.0
2015-Nov-14 11:32N 49°09' W 123°53'0 0.0
2015-Nov-14 09:26N 49°09' W 123°53'0 0.0
2015-Nov-14 08:32N 49°09' W 123°53'0 0.0
2015-Nov-14 06:29N 49°09' W 123°53'0 0.0
2015-Nov-14 05:29N 49°09' W 123°53'0 0.0
2015-Nov-14 00:20N 49°09' W 123°53'0 0.0
2015-Nov-13 23:32N 49°09' W 123°53'1 1.1
2015-Nov-13 22:34N 49°10' W 123°53'8 8.0
2015-Nov-13 21:33N 49°12' W 123°41'1212.1
2015-Nov-13 20:33N 49°06' W 123°25'1212.1
2015-Nov-13 19:33N 48°58' W 123°11'1111.1
2015-Nov-13 18:34N 48°49' W 123°01'10 9.7
2015-Nov-13 17:33N 48°43' W 123°12'1010.2
2015-Nov-13 16:32N 48°32' W 123°12'9 9.5
2015-Nov-13 15:33N 48°23' W 123°15'  
Track history (hours):
 
Tides and Currents Weather Stations Pressure Air Temp Water Temp Dewpoint Dewpoint Depression Visibility Wind Speed Wind Dir Waves Ship Positions

MV Fenella

Last reported at 2015-Nov-17 03:22 UTC. Time now 2016-Feb-10 10:49 UTC.
Position N 48°20' W 124°05'.
Warning: this ship's position is months out of date.

Length 159 m; draft 7 m.

Type: Cargo ship. MMSI: 636092234.

Date/timePositionNaut miles runAvg speedWind from/ knotsBaromVisibWave heightAir tempDewpointWater temp
2015-Nov-17 03:22N 48°20' W 124°05'1113.1
2015-Nov-17 02:33N 48°17' W 123°49'1212.2
2015-Nov-17 01:33N 48°16' W 123°31'1010.5
2015-Nov-17 00:33N 48°24' W 123°21'8 8.3
2015-Nov-16 23:33N 48°30' W 123°13'1110.6
2015-Nov-16 22:33N 48°40' W 123°15'1211.7
2015-Nov-16 21:33N 48°48' W 123°01'1111.1
2015-Nov-16 20:33N 48°56' W 123°12'1211.6
2015-Nov-16 19:33N 49°04' W 123°25'1111.3
2015-Nov-16 18:33N 49°11' W 123°39'10 9.9
2015-Nov-16 17:33N 49°12' W 123°54'0 0.1
2015-Nov-16 16:30N 49°12' W 123°54'0 0.1
2015-Nov-16 15:33N 49°12' W 123°54'0 0.0
2015-Nov-16 14:33N 49°12' W 123°54'0 0.0
2015-Nov-16 13:33N 49°12' W 123°54'0 0.0
2015-Nov-16 12:33N 49°12' W 123°54'0 0.0
2015-Nov-16 11:27N 49°12' W 123°54'0 0.0
2015-Nov-16 10:30N 49°12' W 123°54'0 0.1
2015-Nov-16 09:18N 49°12' W 123°54'0 0.0
2015-Nov-16 07:33N 49°11' W 123°54'0 0.0
2015-Nov-16 06:18N 49°11' W 123°54'0 0.0
2015-Nov-16 05:24N 49°11' W 123°54'0 0.0
2015-Nov-16 04:30N 49°11' W 123°54'0 0.0
2015-Nov-16 03:27N 49°11' W 123°54'0 0.0
2015-Nov-16 02:27N 49°11' W 123°54'0 0.0
2015-Nov-16 01:33N 49°11' W 123°54'0 0.0
2015-Nov-16 00:33N 49°11' W 123°54'0 0.0
2015-Nov-15 23:15N 49°11' W 123°54'0 0.1
2015-Nov-15 22:30N 49°11' W 123°54'0 0.4
2015-Nov-15 21:33N 49°11' W 123°54'2 0.2
2015-Nov-15 08:27N 49°09' W 123°53'0 0.0
2015-Nov-15 07:33N 49°09' W 123°53'0 0.0
2015-Nov-15 03:20N 49°09' W 123°53'0 0.0
2015-Nov-15 02:24N 49°09' W 123°53'0 0.0
2015-Nov-14 23:27N 49°09' W 123°53'0 0.0
2015-Nov-14 22:21N 49°09' W 123°53'0 0.0
2015-Nov-14 21:30N 49°09' W 123°53'0 0.0
2015-Nov-14 20:12N 49°09' W 123°53'0 0.0
2015-Nov-14 19:24N 49°09' W 123°53'0 0.0
2015-Nov-14 18:24N 49°09' W 123°53'0 0.0
2015-Nov-14 17:18N 49°09' W 123°53'0 0.0
2015-Nov-14 14:18N 49°09' W 123°53'0 0.0
2015-Nov-14 13:32N 49°09' W 123°53'0 0.0
2015-Nov-14 12:27N 49°09' W 123°53'0 0.0
2015-Nov-14 11:32N 49°09' W 123°53'0 0.0
2015-Nov-14 09:26N 49°09' W 123°53'0 0.0
2015-Nov-14 08:32N 49°09' W 123°53'0 0.0
2015-Nov-14 06:29N 49°09' W 123°53'0 0.0
2015-Nov-14 05:29N 49°09' W 123°53'0 0.0
2015-Nov-14 00:20N 49°09' W 123°53'0 0.0
2015-Nov-13 23:32N 49°09' W 123°53'1 1.1
2015-Nov-13 22:34N 49°10' W 123°53'8 8.0
2015-Nov-13 21:33N 49°12' W 123°41'1212.1
2015-Nov-13 20:33N 49°06' W 123°25'1212.1
2015-Nov-13 19:33N 48°58' W 123°11'1111.1
2015-Nov-13 18:34N 48°49' W 123°01'10 9.7
2015-Nov-13 17:33N 48°43' W 123°12'1010.2
2015-Nov-13 16:32N 48°32' W 123°12'9 9.5
2015-Nov-13 15:33N 48°23' W 123°15'  

Dump ship's entire track history